Time;durP1;ratioP1;P1;durP2;ratioP2;P2;SDS_P1;SDS_P2;PMS_P1;PMS_P2;Temp;Humidity;BMP_temperature;BMP_pressure;BME280_temperature;BME280_humidity;BME280_pressure;Samples;Min_cycle;Max_cycle;Signal;HPM_P1;HPM_P2
2024/04/06 00:01:39;;;;;;;;;;;;;;;12.98;93.36;96501.03;5065041;28;19937;-79
2024/04/06 00:04:05;;;;;;;;;;;;;;;12.92;93.43;96505.38;5064910;28;20213;-70
2024/04/06 00:06:31;;;;;;;;;;;;;;;12.87;94.75;96505.28;5064196;28;19940;-72
2024/04/06 00:08:57;;;;;;;;;;;;;;;12.83;93.56;96509.41;5046865;28;19962;-73
2024/04/06 00:11:23;;;;;;;;;;;;;;;12.79;94.04;96516.94;5046398;28;19939;-73
2024/04/06 00:13:50;;;;;;;;;;;;;;;12.77;94.46;96512.94;5046945;28;19932;-73
2024/04/06 00:16:16;;;;;;;;;;;;;;;12.75;95.12;96502.63;5047230;28;20114;-73
2024/04/06 00:18:42;;;;;;;;;;;;;;;12.73;95.09;96499.44;5064041;28;19932;-73
2024/04/06 00:21:07;;;;;;;;;;;;;;;12.71;95.59;96498.06;5064528;28;19938;-70
2024/04/06 00:23:33;;;;;;;;;;;;;;;12.70;95.88;96499.88;5064457;28;19961;-77
2024/04/06 00:25:59;;;;;;;;;;;;;;;12.67;95.50;96496.91;5064195;28;19933;-76
2024/04/06 00:28:25;;;;;;;;;;;;;;;12.62;96.74;96507.31;5064149;28;19939;-76
2024/04/06 00:30:54;;;;;;;;;;;;;;;12.55;96.29;96492.44;5046827;28;19950;-76
2024/04/06 00:33:21;;;;;;;;;;;;;;;12.50;95.71;96494.19;5046220;28;19962;-76
2024/04/06 00:35:46;;;;;;;;;;;;;;;12.46;97.70;96500.94;5064239;28;19955;-78
2024/04/06 00:38:12;;;;;;;;;;;;;;;12.38;96.76;96494.97;5063930;28;19932;-71
2024/04/06 00:40:38;;;;;;;;;;;;;;;12.33;98.05;96513.25;5064214;28;19942;-73
2024/04/06 00:43:04;;;;;;;;;;;;;;;12.30;98.18;96515.53;5029735;28;19944;-74
2024/04/06 00:45:30;;;;;;;;;;;;;;;12.27;98.44;96516.00;5063892;28;19942;-77
2024/04/06 00:47:56;;;;;;;;;;;;;;;12.24;99.39;96522.53;5063904;28;19939;-76
2024/04/06 00:50:22;;;;;;;;;;;;;;;12.22;99.71;96526.38;5064349;28;19958;-74
2024/04/06 00:52:48;;;;;;;;;;;;;;;12.18;100.00;96520.78;5064495;28;19944;-75
2024/04/06 00:55:14;;;;;;;;;;;;;;;12.13;99.70;96518.03;5063697;28;19938;-75
2024/04/06 00:57:40;;;;;;;;;;;;;;;12.06;100.00;96518.13;5064277;28;20223;-76
2024/04/06 01:00:06;;;;;;;;;;;;;;;12.00;100.00;96524.28;5063763;28;19936;-73
2024/04/06 01:02:32;;;;;;;;;;;;;;;11.93;100.00;96516.50;5046287;28;19938;-73
2024/04/06 01:04:58;;;;;;;;;;;;;;;11.87;100.00;96520.00;5046001;28;19944;-72
2024/04/06 01:07:24;;;;;;;;;;;;;;;11.82;100.00;96516.41;5064561;28;19926;-73
2024/04/06 01:09:50;;;;;;;;;;;;;;;11.74;100.00;96522.81;5029133;28;19966;-73
2024/04/06 01:12:15;;;;;;;;;;;;;;;11.68;100.00;96519.25;5063229;28;20156;-73
2024/04/06 01:14:41;;;;;;;;;;;;;;;11.60;100.00;96524.81;5063915;28;20000;-74
2024/04/06 01:17:08;;;;;;;;;;;;;;;11.53;100.00;96521.47;5046492;28;19955;-76
2024/04/06 01:19:34;;;;;;;;;;;;;;;11.49;100.00;96528.97;5064163;28;19944;-72
2024/04/06 01:22:00;;;;;;;;;;;;;;;11.48;100.00;96523.94;5063643;28;19934;-72
2024/04/06 01:24:26;;;;;;;;;;;;;;;11.46;100.00;96526.00;5045545;28;19966;-72
2024/04/06 01:26:52;;;;;;;;;;;;;;;11.46;100.00;96529.41;5063508;28;19944;-72
2024/04/06 01:29:19;;;;;;;;;;;;;;;11.47;100.00;96527.59;5063623;28;20132;-72
2024/04/06 01:31:45;;;;;;;;;;;;;;;11.47;100.00;96530.22;5064062;28;20230;-72
2024/04/06 01:34:11;;;;;;;;;;;;;;;11.48;100.00;96526.56;5063514;28;19934;-73
2024/04/06 01:36:37;;;;;;;;;;;;;;;11.49;100.00;96526.34;5045848;28;19981;-74
2024/04/06 01:39:03;;;;;;;;;;;;;;;11.49;100.00;96525.56;5063439;28;19946;-72
2024/04/06 01:41:29;;;;;;;;;;;;;;;11.48;100.00;96516.06;5063715;28;20002;-73
2024/04/06 01:43:55;;;;;;;;;;;;;;;11.47;100.00;96525.78;5063245;28;20230;-72
2024/04/06 01:46:21;;;;;;;;;;;;;;;11.46;100.00;96526.78;5063857;28;19935;-72
2024/04/06 01:48:47;;;;;;;;;;;;;;;11.45;100.00;96519.16;5063899;28;19935;-73
2024/04/06 01:51:13;;;;;;;;;;;;;;;11.42;100.00;96525.63;5065645;28;19956;-72
2024/04/06 01:53:38;;;;;;;;;;;;;;;11.42;100.00;96516.94;5067013;28;19946;-73
2024/04/06 01:56:04;;;;;;;;;;;;;;;11.42;100.00;96520.38;5049560;28;19932;-73
2024/04/06 01:58:30;;;;;;;;;;;;;;;11.42;100.00;96523.00;5066921;28;19935;-73
2024/04/06 02:00:56;;;;;;;;;;;;;;;11.41;100.00;96515.34;5067669;28;19939;-72
2024/04/06 02:03:22;;;;;;;;;;;;;;;11.40;100.00;96511.91;5049028;28;19952;-72
2024/04/06 02:05:48;;;;;;;;;;;;;;;11.42;100.00;96519.56;5067278;28;19931;-72
2024/04/06 02:08:14;;;;;;;;;;;;;;;11.41;100.00;96518.78;5067019;28;19944;-73
2024/04/06 02:10:40;;;;;;;;;;;;;;;11.41;100.00;96510.91;5048777;28;19949;-70
2024/04/06 02:13:06;;;;;;;;;;;;;;;11.42;100.00;96512.50;5066640;28;20164;-72
2024/04/06 02:15:32;;;;;;;;;;;;;;;11.43;100.00;96514.09;5067165;28;20082;-73
2024/04/06 02:17:58;;;;;;;;;;;;;;;11.43;100.00;96515.94;5049492;28;19939;-72
2024/04/06 02:20:24;;;;;;;;;;;;;;;11.45;100.00;96511.28;5049435;28;19929;-71
2024/04/06 02:22:49;;;;;;;;;;;;;;;11.47;100.00;96522.34;5066319;28;19971;-72
2024/04/06 02:25:15;;;;;;;;;;;;;;;11.49;100.00;96518.47;5048557;28;20005;-72
2024/04/06 02:27:41;;;;;;;;;;;;;;;11.51;100.00;96513.00;5066647;28;19944;-72
2024/04/06 02:30:08;;;;;;;;;;;;;;;11.52;100.00;96525.91;5066548;28;19952;-86
2024/04/06 02:32:33;;;;;;;;;;;;;;;11.53;100.00;96521.47;5048910;28;19941;-73
2024/04/06 02:34:59;;;;;;;;;;;;;;;11.52;100.00;96517.22;5048451;28;19943;-73
2024/04/06 02:37:25;;;;;;;;;;;;;;;11.53;100.00;96519.63;5048556;28;19940;-73
2024/04/06 02:39:51;;;;;;;;;;;;;;;11.52;100.00;96512.75;5049055;28;19970;-72
2024/04/06 02:42:17;;;;;;;;;;;;;;;11.53;100.00;96513.59;5048379;28;19946;-73
2024/04/06 02:44:42;;;;;;;;;;;;;;;11.51;100.00;96499.88;5066842;28;19933;-73
2024/04/06 02:47:08;;;;;;;;;;;;;;;11.48;100.00;96506.34;5032561;28;19939;-73
2024/04/06 02:49:34;;;;;;;;;;;;;;;11.47;100.00;96504.75;5048062;28;20059;-72
2024/04/06 02:52:00;;;;;;;;;;;;;;;11.46;100.00;96513.66;5066147;28;19934;-75
2024/04/06 02:54:26;;;;;;;;;;;;;;;11.44;100.00;96507.03;5066151;28;19943;-74
2024/04/06 02:56:52;;;;;;;;;;;;;;;11.42;100.00;96504.63;5065768;28;19964;-74
2024/04/06 02:59:18;;;;;;;;;;;;;;;11.40;100.00;96504.03;5065779;28;19950;-75
2024/04/06 03:01:43;;;;;;;;;;;;;;;11.35;100.00;96502.06;5064754;28;20316;-74
2024/04/06 03:04:09;;;;;;;;;;;;;;;11.32;100.00;96514.84;5065163;28;19941;-74
2024/04/06 03:06:35;;;;;;;;;;;;;;;11.27;100.00;96515.50;5065432;28;19938;-73
2024/04/06 03:09:01;;;;;;;;;;;;;;;11.23;100.00;96524.03;5065393;28;19958;-87
2024/04/06 03:11:27;;;;;;;;;;;;;;;11.18;100.00;96522.06;5065425;28;20022;-88
2024/04/06 03:13:53;;;;;;;;;;;;;;;11.09;100.00;96521.56;5047806;28;19933;-87
2024/04/06 03:16:20;;;;;;;;;;;;;;;11.04;100.00;96531.91;5065052;28;19943;-88
2024/04/06 03:18:46;;;;;;;;;;;;;;;10.98;100.00;96527.53;5048627;28;19941;-87
2024/04/06 03:21:13;;;;;;;;;;;;;;;10.93;100.00;96530.03;5065874;28;19936;-88
2024/04/06 03:23:38;;;;;;;;;;;;;;;10.87;100.00;96523.81;5065637;28;19960;-87
2024/04/06 03:26:04;;;;;;;;;;;;;;;10.83;100.00;96524.47;5065967;28;19943;-87
2024/04/06 03:28:30;;;;;;;;;;;;;;;10.80;100.00;96535.41;5065201;28;19937;-68
2024/04/06 03:30:57;;;;;;;;;;;;;;;10.75;100.00;96538.66;5065610;28;19951;-68
2024/04/06 03:33:23;;;;;;;;;;;;;;;10.71;100.00;96527.81;5065673;28;20085;-69
2024/04/06 03:35:49;;;;;;;;;;;;;;;10.71;100.00;96524.41;5065503;28;19936;-69
2024/04/06 03:38:15;;;;;;;;;;;;;;;10.67;100.00;96524.03;5065530;28;19938;-69
2024/04/06 03:40:41;;;;;;;;;;;;;;;10.63;100.00;96514.19;5065483;28;20003;-70
2024/04/06 03:43:07;;;;;;;;;;;;;;;10.60;100.00;96519.84;5064917;28;20133;-69
2024/04/06 03:45:35;;;;;;;;;;;;;;;10.56;100.00;96535.19;5065672;28;19945;-77
2024/04/06 03:48:05;;;;;;;;;;;;;;;10.54;100.00;96538.06;5065337;28;19931;-78
2024/04/06 03:50:31;;;;;;;;;;;;;;;10.52;100.00;96532.22;5065162;28;19952;-78
2024/04/06 03:53:00;;;;;;;;;;;;;;;10.52;100.00;96531.41;5065546;28;19941;-77
2024/04/06 03:55:26;;;;;;;;;;;;;;;10.50;100.00;96531.63;5064686;28;19941;-77
2024/04/06 03:57:53;;;;;;;;;;;;;;;10.46;100.00;96535.69;5064597;28;19943;-77
2024/04/06 04:00:20;;;;;;;;;;;;;;;10.44;100.00;96545.59;5064633;28;19933;-77
2024/04/06 04:02:46;;;;;;;;;;;;;;;10.43;100.00;96535.31;5064846;28;19932;-72
2024/04/06 04:05:12;;;;;;;;;;;;;;;10.42;100.00;96539.75;5064579;28;20244;-83
2024/04/06 04:07:37;;;;;;;;;;;;;;;10.39;100.00;96542.81;5046650;28;19984;-85
2024/04/06 04:10:04;;;;;;;;;;;;;;;10.37;100.00;96536.97;5064314;28;19956;-84
2024/04/06 04:12:31;;;;;;;;;;;;;;;10.33;100.00;96531.38;5064424;28;19936;-84
2024/04/06 04:15:04;;;;;;;;;;;;;;;10.31;100.00;96529.97;5064633;28;19943;-85
2024/04/06 04:17:32;;;;;;;;;;;;;;;10.29;100.00;96527.56;5065128;28;20199;-86
2024/04/06 04:19:58;;;;;;;;;;;;;;;10.26;100.00;96522.72;5064313;28;19936;-72
2024/04/06 04:22:24;;;;;;;;;;;;;;;10.24;100.00;96534.44;5064330;28;19939;-75
2024/04/06 04:24:50;;;;;;;;;;;;;;;10.21;100.00;96524.38;5063970;28;19966;-75
2024/04/06 04:27:16;;;;;;;;;;;;;;;10.20;100.00;96535.88;5046563;28;19939;-74
2024/04/06 04:29:41;;;;;;;;;;;;;;;10.16;100.00;96544.16;5064071;28;19933;-75
2024/04/06 04:32:08;;;;;;;;;;;;;;;10.17;100.00;96539.72;5064113;28;19974;-75
2024/04/06 04:34:34;;;;;;;;;;;;;;;10.14;100.00;96556.69;5063639;28;19954;-75
2024/04/06 04:37:00;;;;;;;;;;;;;;;10.13;100.00;96554.25;5064069;28;20237;-74
2024/04/06 04:39:25;;;;;;;;;;;;;;;10.10;100.00;96544.19;5046402;28;19933;-70
2024/04/06 04:41:52;;;;;;;;;;;;;;;10.05;100.00;96544.84;5063954;28;20167;-76
2024/04/06 04:44:18;;;;;;;;;;;;;;;10.04;100.00;96545.06;5063333;28;19938;-77
2024/04/06 04:46:44;;;;;;;;;;;;;;;9.98;100.00;96543.28;5064472;28;19937;-77
2024/04/06 04:49:10;;;;;;;;;;;;;;;9.94;100.00;96548.94;5029640;28;19944;-77
2024/04/06 04:51:36;;;;;;;;;;;;;;;9.92;100.00;96543.09;5046646;28;19959;-77
2024/04/06 04:54:03;;;;;;;;;;;;;;;9.91;100.00;96546.75;5063842;28;19999;-77
2024/04/06 04:56:28;;;;;;;;;;;;;;;9.91;100.00;96556.41;5063355;28;19940;-73
2024/04/06 04:58:54;;;;;;;;;;;;;;;9.89;100.00;96551.41;5063813;28;19958;-72
2024/04/06 05:01:20;;;;;;;;;;;;;;;9.87;100.00;96545.56;5064615;28;20193;-78
2024/04/06 05:03:46;;;;;;;;;;;;;;;9.86;100.00;96554.41;5063797;28;20152;-76
2024/04/06 05:06:12;;;;;;;;;;;;;;;9.85;100.00;96555.44;5064562;28;19931;-77
2024/04/06 05:08:38;;;;;;;;;;;;;;;9.85;100.00;96552.81;5046431;28;19986;-77
2024/04/06 05:11:04;;;;;;;;;;;;;;;9.87;100.00;96556.03;5064489;28;19951;-77
2024/04/06 05:13:30;;;;;;;;;;;;;;;9.91;100.00;96561.63;5064261;28;19936;-77
2024/04/06 05:15:57;;;;;;;;;;;;;;;9.94;100.00;96569.09;5064256;28;19934;-73
2024/04/06 05:18:23;;;;;;;;;;;;;;;10.00;100.00;96559.59;5063714;28;19932;-72
2024/04/06 05:20:49;;;;;;;;;;;;;;;10.05;100.00;96565.00;5063880;28;19931;-73
2024/04/06 05:23:16;;;;;;;;;;;;;;;10.10;100.00;96562.53;5045567;28;19946;-73
2024/04/06 05:25:42;;;;;;;;;;;;;;;10.19;100.00;96561.28;5064233;28;19941;-72
2024/04/06 05:28:08;;;;;;;;;;;;;;;10.32;100.00;96550.72;5050455;28;19950;-72
2024/04/06 05:30:34;;;;;;;;;;;;;;;10.48;100.00;96562.50;5068163;28;19954;-72
2024/04/06 05:33:00;;;;;;;;;;;;;;;10.69;100.00;96561.31;5067469;28;19937;-80
2024/04/06 05:35:26;;;;;;;;;;;;;;;10.90;100.00;96559.31;5067423;28;19934;-70
2024/04/06 05:37:52;;;;;;;;;;;;;;;11.14;100.00;96557.66;5067869;28;19974;-77
2024/04/06 05:40:18;;;;;;;;;;;;;;;11.43;100.00;96552.69;5033777;28;19933;-77
2024/04/06 05:42:43;;;;;;;;;;;;;;;11.73;100.00;96555.34;5067744;28;19936;-76
2024/04/06 05:45:10;;;;;;;;;;;;;;;12.03;100.00;96544.84;5067224;28;19997;-76
2024/04/06 05:47:35;;;;;;;;;;;;;;;12.34;100.00;96532.47;5067969;28;20104;-77
2024/04/06 05:50:02;;;;;;;;;;;;;;;12.69;100.00;96527.22;5067554;28;19955;-77
2024/04/06 05:52:28;;;;;;;;;;;;;;;13.13;100.00;96514.50;5067623;28;19932;-72
2024/04/06 05:54:54;;;;;;;;;;;;;;;13.60;100.00;96511.72;5067837;28;19937;-69
2024/04/06 05:57:19;;;;;;;;;;;;;;;14.01;100.00;96496.66;5066989;28;20008;-69
2024/04/06 05:59:45;;;;;;;;;;;;;;;14.39;99.60;96483.81;5067721;28;20161;-70
2024/04/06 06:02:11;;;;;;;;;;;;;;;14.77;97.61;96474.34;5049263;28;19948;-70
2024/04/06 06:04:37;;;;;;;;;;;;;;;15.15;94.52;96468.22;5032530;28;19935;-70
2024/04/06 06:07:03;;;;;;;;;;;;;;;15.44;86.54;96423.09;5066813;28;20148;-70
2024/04/06 06:09:29;;;;;;;;;;;;;;;15.67;86.65;96429.94;5066917;28;19965;-72
2024/04/06 06:11:55;;;;;;;;;;;;;;;15.92;86.13;96434.66;5067447;28;19951;-73
2024/04/06 06:14:21;;;;;;;;;;;;;;;16.07;81.53;96419.97;5067205;28;19936;-73
2024/04/06 06:16:47;;;;;;;;;;;;;;;16.23;81.91;96435.72;5049449;28;19940;-73
2024/04/06 06:19:13;;;;;;;;;;;;;;;16.42;82.34;96459.09;5066822;28;20021;-73
2024/04/06 06:21:38;;;;;;;;;;;;;;;16.57;81.13;96453.91;5067031;28;19932;-73
2024/04/06 06:24:05;;;;;;;;;;;;;;;16.64;80.28;96456.34;5066343;28;19962;-73
2024/04/06 06:26:30;;;;;;;;;;;;;;;16.64;78.90;96441.25;5066476;28;19940;-73
2024/04/06 06:28:56;;;;;;;;;;;;;;;16.62;77.64;96453.94;5066849;28;19979;-73
2024/04/06 06:31:22;;;;;;;;;;;;;;;16.58;76.81;96447.56;5066825;28;19944;-81
2024/04/06 06:33:49;;;;;;;;;;;;;;;16.67;79.25;96465.63;5048619;28;19935;-82
2024/04/06 06:36:15;;;;;;;;;;;;;;;16.79;78.28;96467.00;5065904;28;19935;-82
2024/04/06 06:38:40;;;;;;;;;;;;;;;16.77;74.75;96453.22;5066741;28;20091;-82
2024/04/06 06:41:06;;;;;;;;;;;;;;;16.73;76.63;96454.00;5066934;28;19937;-82
2024/04/06 06:43:32;;;;;;;;;;;;;;;16.71;76.93;96459.53;5066117;28;19940;-81
2024/04/06 06:45:58;;;;;;;;;;;;;;;16.74;77.66;96466.19;5066097;28;20217;-82
2024/04/06 06:48:24;;;;;;;;;;;;;;;16.99;77.75;96462.91;5066020;28;19944;-71
2024/04/06 06:50:50;;;;;;;;;;;;;;;17.21;77.59;96466.16;5065897;28;19956;-74
2024/04/06 06:53:16;;;;;;;;;;;;;;;17.40;74.85;96455.91;5031516;28;19943;-74
2024/04/06 06:55:42;;;;;;;;;;;;;;;17.41;72.88;96464.66;5065844;28;19935;-75
2024/04/06 06:58:08;;;;;;;;;;;;;;;17.39;72.25;96472.09;5048120;28;19974;-74
2024/04/06 07:00:36;;;;;;;;;;;;;;;17.27;74.28;96482.91;5065752;28;19948;-73
2024/04/06 07:03:02;;;;;;;;;;;;;;;17.11;73.43;96487.31;5064529;28;19942;-73
2024/04/06 07:05:28;;;;;;;;;;;;;;;16.92;72.41;96481.66;5031474;28;19944;-78
2024/04/06 07:07:55;;;;;;;;;;;;;;;16.96;76.57;96503.16;5065851;28;19927;-72
2024/04/06 07:10:21;;;;;;;;;;;;;;;17.00;76.68;96501.59;5066004;28;19964;-79
2024/04/06 07:12:47;;;;;;;;;;;;;;;16.97;74.44;96488.88;5048152;28;19940;-80
2024/04/06 07:15:13;;;;;;;;;;;;;;;17.09;76.21;96497.38;5065591;28;19936;-79
2024/04/06 07:17:38;;;;;;;;;;;;;;;17.15;73.29;96487.63;5065969;28;19946;-79
2024/04/06 07:20:05;;;;;;;;;;;;;;;17.10;74.74;96485.75;5065954;28;20280;-78
2024/04/06 07:22:31;;;;;;;;;;;;;;;17.32;74.48;96492.72;5065638;28;19937;-79
2024/04/06 07:24:56;;;;;;;;;;;;;;;17.62;73.30;96492.03;5065138;28;19967;-70
2024/04/06 07:27:22;;;;;;;;;;;;;;;17.85;71.70;96488.13;5065324;28;19980;-73
2024/04/06 07:29:48;;;;;;;;;;;;;;;17.99;73.52;96501.66;5065247;28;19938;-73
2024/04/06 07:32:14;;;;;;;;;;;;;;;17.96;70.80;96491.59;5065126;28;19946;-74
2024/04/06 07:34:40;;;;;;;;;;;;;;;18.03;72.05;96506.19;5065129;28;20001;-73
2024/04/06 07:37:05;;;;;;;;;;;;;;;18.15;72.10;96507.78;5065839;28;19931;-73
2024/04/06 07:39:31;;;;;;;;;;;;;;;18.33;71.68;96504.63;5065069;28;19932;-73
2024/04/06 07:41:57;;;;;;;;;;;;;;;18.46;70.75;96497.97;5065759;28;19968;-74
2024/04/06 07:44:23;;;;;;;;;;;;;;;18.58;70.95;96500.34;5047561;28;19939;-73
2024/04/06 07:46:49;;;;;;;;;;;;;;;18.66;69.88;96502.44;5047101;28;19940;-70
2024/04/06 07:49:15;;;;;;;;;;;;;;;18.60;68.79;96501.66;5064986;28;20086;-71
2024/04/06 07:51:42;;;;;;;;;;;;;;;18.55;69.28;96496.38;5064758;28;20111;-71
2024/04/06 07:54:08;;;;;;;;;;;;;;;18.42;71.94;96504.88;5065341;28;19936;-71
2024/04/06 07:56:34;;;;;;;;;;;;;;;18.40;72.35;96507.78;5047331;28;19952;-70
2024/04/06 07:58:59;;;;;;;;;;;;;;;18.34;70.53;96508.84;5065401;28;20328;-71
2024/04/06 08:01:26;;;;;;;;;;;;;;;18.36;69.86;96508.59;5064618;28;19948;-73
2024/04/06 08:03:53;;;;;;;;;;;;;;;18.32;72.84;96518.16;5064684;28;20240;-75
2024/04/06 08:06:19;;;;;;;;;;;;;;;18.44;71.26;96510.72;5064547;28;19933;-75
2024/04/06 08:08:45;;;;;;;;;;;;;;;18.70;73.12;96518.66;5065146;28;20116;-74
2024/04/06 08:11:11;;;;;;;;;;;;;;;18.94;73.35;96503.78;5064759;28;20133;-74
2024/04/06 08:13:37;;;;;;;;;;;;;;;19.11;68.63;96500.81;5064359;28;20274;-75
2024/04/06 08:16:03;;;;;;;;;;;;;;;19.10;68.84;96504.50;5064220;28;19936;-74
2024/04/06 08:18:29;;;;;;;;;;;;;;;19.09;68.91;96499.47;5047101;28;19942;-74
2024/04/06 08:20:55;;;;;;;;;;;;;;;19.21;68.32;96503.44;5046329;28;19939;-74
2024/04/06 08:23:21;;;;;;;;;;;;;;;19.38;70.32;96504.94;5064067;28;19932;-79
2024/04/06 08:25:53;;;;;;;;;;;;;;;19.55;63.76;96485.97;5064635;28;19962;-79
2024/04/06 08:28:19;;;;;;;;;;;;;;;19.68;69.24;96509.31;5047143;28;19943;-80
2024/04/06 08:30:45;;;;;;;;;;;;;;;20.00;69.60;96508.09;5046893;28;19952;-79
2024/04/06 08:33:10;;;;;;;;;;;;;;;20.11;65.24;96498.16;5064112;28;19944;-78
2024/04/06 08:35:37;;;;;;;;;;;;;;;20.30;64.37;96491.09;5046876;28;19931;-80
2024/04/06 08:38:04;;;;;;;;;;;;;;;20.58;64.40;96488.75;5064785;28;19932;-72
2024/04/06 08:40:30;;;;;;;;;;;;;;;20.57;60.43;96500.47;5064043;28;20094;-71
2024/04/06 08:42:56;;;;;;;;;;;;;;;20.47;62.26;96512.00;5064636;28;19934;-72
2024/04/06 08:45:25;;;;;;;;;;;;;;;20.31;62.17;96518.53;5063813;28;20128;-72
2024/04/06 08:47:52;;;;;;;;;;;;;;;20.14;60.32;96509.06;5046138;28;19945;-72
2024/04/06 08:50:17;;;;;;;;;;;;;;;20.19;63.29;96516.22;5063454;28;19942;-72
2024/04/06 08:52:44;;;;;;;;;;;;;;;20.31;64.37;96519.34;5063791;28;19957;-71
2024/04/06 08:55:10;;;;;;;;;;;;;;;20.48;60.23;96509.06;5064652;28;19928;-70
2024/04/06 08:57:37;;;;;;;;;;;;;;;20.66;61.50;96504.94;5064357;28;19947;-74
2024/04/06 09:00:07;;;;;;;;;;;;;;;20.93;62.70;96506.25;5065849;28;19938;-67
2024/04/06 09:02:33;;;;;;;;;;;;;;;21.13;62.11;96507.13;5067874;28;19958;-68
2024/04/06 09:04:59;;;;;;;;;;;;;;;21.13;61.35;96501.81;5067818;28;19937;-68
2024/04/06 09:07:25;;;;;;;;;;;;;;;21.19;60.90;96504.13;5068681;28;20242;-68
2024/04/06 09:09:52;;;;;;;;;;;;;;;21.03;56.38;96492.81;5067994;28;19954;-68
2024/04/06 09:12:18;;;;;;;;;;;;;;;21.31;61.17;96502.91;5067803;28;19955;-69
2024/04/06 09:14:46;;;;;;;;;;;;;;;21.50;59.40;96495.75;5068552;28;19933;-72
2024/04/06 09:17:14;;;;;;;;;;;;;;;21.47;54.94;96497.13;5050063;28;19981;-74
2024/04/06 09:19:40;;;;;;;;;;;;;;;21.51;58.72;96500.03;5067630;28;20225;-74
2024/04/06 09:22:06;;;;;;;;;;;;;;;21.75;56.29;96489.28;5067649;28;19937;-73
2024/04/06 09:24:32;;;;;;;;;;;;;;;21.87;56.16;96492.31;5067437;28;19968;-73
2024/04/06 09:27:07;;;;;;;;;;;;;;;22.03;58.37;96495.56;5067585;28;19941;-74
2024/04/06 09:29:33;;;;;;;;;;;;;;;22.15;56.32;96489.78;5068325;28;20184;-74
2024/04/06 09:32:03;;;;;;;;;;;;;;;22.22;51.54;96492.88;5067599;28;19995;-72
2024/04/06 09:34:30;;;;;;;;;;;;;;;22.15;49.84;96484.44;5067397;28;20232;-71
2024/04/06 09:37:03;;;;;;;;;;;;;;;22.19;51.01;96490.78;5033913;28;19936;-73
2024/04/06 09:39:30;;;;;;;;;;;;;;;22.38;51.29;96495.31;5068168;28;19936;-73
2024/04/06 09:41:56;;;;;;;;;;;;;;;22.59;54.12;96488.53;5067260;28;19941;-73
2024/04/06 09:44:23;;;;;;;;;;;;;;;22.64;49.32;96477.78;5067852;28;19931;-73
2024/04/06 09:46:49;;;;;;;;;;;;;;;22.83;51.16;96471.56;5067699;28;19942;-73
2024/04/06 09:49:16;;;;;;;;;;;;;;;23.01;51.86;96473.38;5067669;28;19934;-73
2024/04/06 09:51:42;;;;;;;;;;;;;;;23.08;51.97;96468.44;5067082;28;19952;-70
2024/04/06 09:54:08;;;;;;;;;;;;;;;23.27;51.26;96472.88;5049934;28;19943;-84
2024/04/06 09:56:35;;;;;;;;;;;;;;;23.23;50.05;96469.22;5067836;28;19939;-84
2024/04/06 09:59:01;;;;;;;;;;;;;;;23.32;49.29;96462.06;5049730;28;20211;-84
2024/04/06 10:01:26;;;;;;;;;;;;;;;23.54;49.47;96465.88;5066921;28;19928;-84
2024/04/06 10:03:52;;;;;;;;;;;;;;;23.69;50.80;96461.00;5049996;28;19934;-84
2024/04/06 10:06:19;;;;;;;;;;;;;;;23.85;48.60;96460.69;5067642;28;20004;-83
2024/04/06 10:08:49;;;;;;;;;;;;;;;24.14;47.03;96449.56;5067193;28;19951;-72
2024/04/06 10:11:16;;;;;;;;;;;;;;;24.33;44.62;96451.25;5048251;28;20237;-70
2024/04/06 10:13:51;;;;;;;;;;;;;;;24.24;49.99;96461.94;5067425;28;19938;-70
2024/04/06 10:16:20;;;;;;;;;;;;;;;24.22;44.16;96456.88;5049508;28;19935;-70
2024/04/06 10:18:46;;;;;;;;;;;;;;;24.30;47.36;96460.69;5066501;28;19934;-70
2024/04/06 10:21:14;;;;;;;;;;;;;;;24.44;44.48;96458.75;5066482;28;19942;-70
2024/04/06 10:23:40;;;;;;;;;;;;;;;24.60;45.43;96458.38;5066215;28;19962;-70
2024/04/06 10:26:12;;;;;;;;;;;;;;;24.76;43.76;96453.38;5066361;28;20134;-70
2024/04/06 10:28:39;;;;;;;;;;;;;;;24.92;44.53;96444.63;5049332;28;20129;-81
2024/04/06 10:31:06;;;;;;;;;;;;;;;25.14;44.52;96442.19;5066682;28;20136;-73
2024/04/06 10:33:31;;;;;;;;;;;;;;;25.18;38.64;96443.91;5067022;28;20237;-72
2024/04/06 10:35:57;;;;;;;;;;;;;;;25.08;38.13;96433.47;5066227;28;19933;-73
2024/04/06 10:38:23;;;;;;;;;;;;;;;25.16;36.75;96432.72;5066907;28;19978;-72
2024/04/06 10:40:49;;;;;;;;;;;;;;;25.36;37.75;96431.34;5066120;28;19942;-72
2024/04/06 10:43:15;;;;;;;;;;;;;;;25.49;36.69;96433.13;5066069;28;19967;-73
2024/04/06 10:45:41;;;;;;;;;;;;;;;25.58;36.37;96435.81;5066800;28;19931;-69
2024/04/06 10:48:06;;;;;;;;;;;;;;;25.48;36.25;96428.03;5065948;28;19949;-73
2024/04/06 10:50:33;;;;;;;;;;;;;;;25.48;36.21;96430.72;5048827;28;19972;-82
2024/04/06 10:53:00;;;;;;;;;;;;;;;25.57;34.36;96428.06;5048023;28;19954;-83
2024/04/06 10:55:27;;;;;;;;;;;;;;;25.80;34.94;96432.16;5066616;28;19942;-81
2024/04/06 10:57:55;;;;;;;;;;;;;;;25.95;31.71;96432.81;5065804;28;19942;-78
2024/04/06 11:00:21;;;;;;;;;;;;;;;26.08;29.77;96429.97;5066563;28;19940;-79
2024/04/06 11:02:47;;;;;;;;;;;;;;;26.04;nan;96434.41;5065936;28;19935;-79
2024/04/06 11:05:13;;;;;;;;;;;;;;;26.08;27.05;96429.16;5065684;28;19967;-79
2024/04/06 11:07:39;;;;;;;;;;;;;;;26.18;30.57;96434.19;5048012;28;20267;-73
2024/04/06 11:10:06;;;;;;;;;;;;;;;25.98;26.37;96430.28;5064440;28;20168;-73
2024/04/06 11:12:32;;;;;;;;;;;;;;;25.94;26.99;96431.25;5065469;28;19953;-73
2024/04/06 11:15:01;;;;;;;;;;;;;;;25.95;25.92;96417.47;5065433;28;20004;-74
2024/04/06 11:17:27;;;;;;;;;;;;;;;26.08;29.14;96419.22;5065967;28;20219;-72
2024/04/06 11:19:58;;;;;;;;;;;;;;;26.30;27.87;96423.59;5065371;28;19958;-73
2024/04/06 11:22:24;;;;;;;;;;;;;;;26.49;27.20;96425.91;5065873;28;19951;-72
2024/04/06 11:24:51;;;;;;;;;;;;;;;26.62;28.37;96415.31;5064490;28;19965;-79
2024/04/06 11:27:21;;;;;;;;;;;;;;;26.61;25.33;96409.13;5065186;28;20248;-69
2024/04/06 11:29:49;;;;;;;;;;;;;;;26.59;27.20;96415.97;5065709;28;20206;-70
2024/04/06 11:32:21;;;;;;;;;;;;;;;26.64;27.50;96403.09;5063900;28;20149;-69
2024/04/06 11:34:48;;;;;;;;;;;;;;;26.47;26.37;96411.22;5065915;28;19935;-69
2024/04/06 11:37:17;;;;;;;;;;;;;;;26.46;27.41;96398.88;5065062;28;20130;-69
2024/04/06 11:39:43;;;;;;;;;;;;;;;26.52;27.02;96401.09;5065768;28;19958;-69
2024/04/06 11:42:09;;;;;;;;;;;;;;;26.74;26.46;96391.19;5065789;28;19934;-72
2024/04/06 11:44:35;;;;;;;;;;;;;;;26.73;27.08;96390.41;5065019;28;19938;-68
2024/04/06 11:47:01;;;;;;;;;;;;;;;26.81;27.03;96404.94;5047421;28;19932;-70
2024/04/06 11:49:27;;;;;;;;;;;;;;;26.85;25.93;96391.63;5064812;28;19990;-69
2024/04/06 11:51:53;;;;;;;;;;;;;;;26.94;26.93;96392.34;5064696;28;19957;-68
2024/04/06 11:54:19;;;;;;;;;;;;;;;26.93;25.94;96394.25;5064724;28;19977;-69
2024/04/06 11:56:45;;;;;;;;;;;;;;;27.02;26.70;96396.91;5064611;28;20108;-70
2024/04/06 11:59:11;;;;;;;;;;;;;;;27.19;25.69;96387.16;5064667;28;19938;-72
2024/04/06 12:01:37;;;;;;;;;;;;;;;27.25;26.36;96386.66;5065114;28;19928;-68
2024/04/06 12:04:02;;;;;;;;;;;;;;;27.39;26.33;96393.72;5065067;28;19934;-71
2024/04/06 12:06:28;;;;;;;;;;;;;;;27.55;25.97;96392.00;5065267;28;19936;-70
2024/04/06 12:08:54;;;;;;;;;;;;;;;27.52;25.33;96389.97;5064388;28;19958;-71
2024/04/06 12:11:20;;;;;;;;;;;;;;;27.43;25.83;96395.41;5064872;28;19957;-72
2024/04/06 12:13:46;;;;;;;;;;;;;;;27.46;26.18;96394.75;5064410;28;19938;-69
2024/04/06 12:16:12;;;;;;;;;;;;;;;27.61;26.18;96389.88;5065123;28;19945;-70
2024/04/06 12:18:38;;;;;;;;;;;;;;;27.69;26.14;96397.09;5064590;28;19936;-74
2024/04/06 12:21:03;;;;;;;;;;;;;;;27.67;25.15;96391.25;5046716;28;20018;-72
2024/04/06 12:23:29;;;;;;;;;;;;;;;27.60;25.05;96380.25;5064088;28;19957;-71
2024/04/06 12:25:56;;;;;;;;;;;;;;;27.51;25.08;96381.09;5064978;28;19941;-72
2024/04/06 12:28:21;;;;;;;;;;;;;;;27.56;26.07;96377.41;5064162;28;19950;-72
2024/04/06 12:30:47;;;;;;;;;;;;;;;27.58;24.20;96375.16;5064075;28;19985;-72
2024/04/06 12:33:13;;;;;;;;;;;;;;;27.63;25.17;96372.25;5046895;28;19960;-72
2024/04/06 12:35:42;;;;;;;;;;;;;;;27.63;24.70;96369.56;5063770;28;19938;-74
2024/04/06 12:38:11;;;;;;;;;;;;;;;27.71;23.65;96362.53;5064324;28;20107;-68